Natural Bridge Station, Virginia
Current Conditions -  °F | °C
As of 6:54 AM on Thursday 23 Oct 2014 (Local Time) from KLYH Reporting Station
Clear Clear  
Wind Chill: 42°   Ceiling: Unl
Heat Index: 42°   Visibility: 10mi
Dew Point: 37°   Wind: 3mph
Humidity: 82%   Direction: 130°SE
Pressure: 30.03"   Gusts: NA
Location:  37.62°N, 79.51°W
Report Text: KLYH 231054Z 13003KT 10SM CLR 06/03 A3003 RMK AO2 SLP169 T00560028
Loading
Personal Weather Stations






























Interactive Weather Map
Tropical Storm Tracking
New forecast layout! Learn more

10-Day Weather Forecast

Advertisements
Track Severe Weather on mobile